sensor_id;sensor_type;location;lat;lon;timestamp;P1;durP1;ratioP1;P2;durP2;ratioP2
71150;SDS011;59071;42.138;24.768;2022-07-23T00:01:33;7.47;;;4.00;;
71150;SDS011;59071;42.138;24.768;2022-07-23T00:03:59;7.75;;;4.60;;
71150;SDS011;59071;42.138;24.768;2022-07-23T00:06:24;7.75;;;4.40;;
71150;SDS011;59071;42.138;24.768;2022-07-23T00:08:50;8.98;;;4.35;;
71150;SDS011;59071;42.138;24.768;2022-07-23T00:11:16;7.47;;;4.10;;
71150;SDS011;59071;42.138;24.768;2022-07-23T00:13:41;6.25;;;4.25;;
71150;SDS011;59071;42.138;24.768;2022-07-23T00:16:07;11.30;;;4.20;;
71150;SDS011;59071;42.138;24.768;2022-07-23T00:18:33;7.47;;;4.38;;
71150;SDS011;59071;42.138;24.768;2022-07-23T00:20:58;8.27;;;4.30;;
71150;SDS011;59071;42.138;24.768;2022-07-23T00:23:24;8.38;;;4.30;;
71150;SDS011;59071;42.138;24.768;2022-07-23T00:25:50;8.82;;;4.20;;
71150;SDS011;59071;42.138;24.768;2022-07-23T00:28:16;10.15;;;4.30;;
71150;SDS011;59071;42.138;24.768;2022-07-23T00:30:43;6.13;;;4.30;;
71150;SDS011;59071;42.138;24.768;2022-07-23T00:33:08;8.48;;;4.18;;
71150;SDS011;59071;42.138;24.768;2022-07-23T00:35:35;5.38;;;3.83;;
71150;SDS011;59071;42.138;24.768;2022-07-23T00:38:03;7.50;;;4.15;;
71150;SDS011;59071;42.138;24.768;2022-07-23T00:40:29;6.78;;;4.15;;
71150;SDS011;59071;42.138;24.768;2022-07-23T00:42:55;10.95;;;4.15;;
71150;SDS011;59071;42.138;24.768;2022-07-23T00:45:22;6.47;;;4.07;;
71150;SDS011;59071;42.138;24.768;2022-07-23T00:47:48;8.40;;;4.53;;
71150;SDS011;59071;42.138;24.768;2022-07-23T00:50:14;9.77;;;4.90;;
71150;SDS011;59071;42.138;24.768;2022-07-23T00:52:40;10.35;;;4.57;;
71150;SDS011;59071;42.138;24.768;2022-07-23T00:55:06;9.63;;;4.80;;
71150;SDS011;59071;42.138;24.768;2022-07-23T00:57:33;9.57;;;6.25;;
71150;SDS011;59071;42.138;24.768;2022-07-23T00:59:59;13.98;;;7.78;;
71150;SDS011;59071;42.138;24.768;2022-07-23T01:02:25;19.08;;;9.65;;
71150;SDS011;59071;42.138;24.768;2022-07-23T01:04:51;14.30;;;9.05;;
71150;SDS011;59071;42.138;24.768;2022-07-23T01:07:17;13.98;;;9.25;;
71150;SDS011;59071;42.138;24.768;2022-07-23T01:09:43;12.40;;;8.63;;
71150;SDS011;59071;42.138;24.768;2022-07-23T01:12:10;12.88;;;7.78;;
71150;SDS011;59071;42.138;24.768;2022-07-23T01:14:35;11.52;;;7.95;;
71150;SDS011;59071;42.138;24.768;2022-07-23T01:17:01;11.90;;;7.18;;
71150;SDS011;59071;42.138;24.768;2022-07-23T01:19:26;12.38;;;7.32;;
71150;SDS011;59071;42.138;24.768;2022-07-23T01:21:52;9.10;;;6.68;;
71150;SDS011;59071;42.138;24.768;2022-07-23T01:24:20;11.43;;;7.22;;
71150;SDS011;59071;42.138;24.768;2022-07-23T01:26:45;12.98;;;6.90;;
71150;SDS011;59071;42.138;24.768;2022-07-23T01:29:13;12.50;;;7.28;;
71150;SDS011;59071;42.138;24.768;2022-07-23T01:31:39;14.45;;;7.25;;
71150;SDS011;59071;42.138;24.768;2022-07-23T01:34:05;11.23;;;6.80;;
71150;SDS011;59071;42.138;24.768;2022-07-23T01:36:32;14.38;;;6.70;;
71150;SDS011;59071;42.138;24.768;2022-07-23T01:39:02;12.32;;;7.18;;
71150;SDS011;59071;42.138;24.768;2022-07-23T01:41:28;9.13;;;6.45;;
71150;SDS011;59071;42.138;24.768;2022-07-23T01:43:54;12.38;;;6.80;;
71150;SDS011;59071;42.138;24.768;2022-07-23T01:46:19;17.48;;;10.88;;
71150;SDS011;59071;42.138;24.768;2022-07-23T01:48:45;13.75;;;7.95;;
71150;SDS011;59071;42.138;24.768;2022-07-23T01:51:10;9.80;;;6.72;;
71150;SDS011;59071;42.138;24.768;2022-07-23T01:53:36;15.93;;;9.82;;
71150;SDS011;59071;42.138;24.768;2022-07-23T01:56:02;29.23;;;16.75;;
71150;SDS011;59071;42.138;24.768;2022-07-23T01:58:28;13.43;;;8.73;;
71150;SDS011;59071;42.138;24.768;2022-07-23T02:00:54;12.20;;;8.13;;
71150;SDS011;59071;42.138;24.768;2022-07-23T02:03:20;13.88;;;8.60;;
71150;SDS011;59071;42.138;24.768;2022-07-23T02:05:46;12.60;;;8.73;;
71150;SDS011;59071;42.138;24.768;2022-07-23T02:08:11;14.88;;;9.18;;
71150;SDS011;59071;42.138;24.768;2022-07-23T02:10:37;14.13;;;8.70;;
71150;SDS011;59071;42.138;24.768;2022-07-23T02:13:02;16.63;;;9.43;;
71150;SDS011;59071;42.138;24.768;2022-07-23T02:15:28;11.90;;;8.30;;
71150;SDS011;59071;42.138;24.768;2022-07-23T02:17:54;12.85;;;8.85;;
71150;SDS011;59071;42.138;24.768;2022-07-23T02:20:20;13.02;;;10.02;;
71150;SDS011;59071;42.138;24.768;2022-07-23T02:22:46;16.85;;;10.43;;
71150;SDS011;59071;42.138;24.768;2022-07-23T02:25:11;15.70;;;10.75;;
71150;SDS011;59071;42.138;24.768;2022-07-23T02:27:37;16.58;;;10.68;;
71150;SDS011;59071;42.138;24.768;2022-07-23T02:30:02;16.38;;;10.98;;
71150;SDS011;59071;42.138;24.768;2022-07-23T02:32:28;17.40;;;10.50;;
71150;SDS011;59071;42.138;24.768;2022-07-23T02:34:54;13.93;;;10.38;;
71150;SDS011;59071;42.138;24.768;2022-07-23T02:37:19;17.13;;;10.85;;
71150;SDS011;59071;42.138;24.768;2022-07-23T02:39:45;14.63;;;11.00;;
71150;SDS011;59071;42.138;24.768;2022-07-23T02:42:10;16.23;;;10.38;;
71150;SDS011;59071;42.138;24.768;2022-07-23T02:44:36;15.60;;;10.57;;
71150;SDS011;59071;42.138;24.768;2022-07-23T02:47:01;15.50;;;10.15;;
71150;SDS011;59071;42.138;24.768;2022-07-23T02:49:27;14.25;;;9.25;;
71150;SDS011;59071;42.138;24.768;2022-07-23T02:51:52;15.05;;;9.98;;
71150;SDS011;59071;42.138;24.768;2022-07-23T02:54:18;16.60;;;9.73;;
71150;SDS011;59071;42.138;24.768;2022-07-23T02:56:44;13.52;;;9.43;;
71150;SDS011;59071;42.138;24.768;2022-07-23T02:59:09;12.80;;;8.77;;
71150;SDS011;59071;42.138;24.768;2022-07-23T03:01:35;11.32;;;8.48;;
71150;SDS011;59071;42.138;24.768;2022-07-23T03:04:01;14.55;;;8.80;;
71150;SDS011;59071;42.138;24.768;2022-07-23T03:06:26;14.32;;;8.50;;
71150;SDS011;59071;42.138;24.768;2022-07-23T03:08:52;14.77;;;8.65;;
71150;SDS011;59071;42.138;24.768;2022-07-23T03:11:17;15.45;;;8.65;;
71150;SDS011;59071;42.138;24.768;2022-07-23T03:13:43;12.93;;;8.18;;
71150;SDS011;59071;42.138;24.768;2022-07-23T03:16:08;10.90;;;7.50;;
71150;SDS011;59071;42.138;24.768;2022-07-23T03:18:34;13.27;;;8.50;;
71150;SDS011;59071;42.138;24.768;2022-07-23T03:20:59;12.05;;;8.07;;
71150;SDS011;59071;42.138;24.768;2022-07-23T03:23:25;9.82;;;7.40;;
71150;SDS011;59071;42.138;24.768;2022-07-23T03:25:50;12.48;;;7.57;;
71150;SDS011;59071;42.138;24.768;2022-07-23T03:28:17;10.90;;;7.53;;
71150;SDS011;59071;42.138;24.768;2022-07-23T03:30:43;13.77;;;7.82;;
71150;SDS011;59071;42.138;24.768;2022-07-23T03:33:13;12.35;;;7.47;;
71150;SDS011;59071;42.138;24.768;2022-07-23T03:35:41;11.73;;;7.15;;
71150;SDS011;59071;42.138;24.768;2022-07-23T03:38:07;12.68;;;8.00;;
71150;SDS011;59071;42.138;24.768;2022-07-23T03:40:32;10.98;;;6.97;;
71150;SDS011;59071;42.138;24.768;2022-07-23T03:42:58;9.50;;;6.75;;
71150;SDS011;59071;42.138;24.768;2022-07-23T03:45:23;10.18;;;6.97;;
71150;SDS011;59071;42.138;24.768;2022-07-23T03:47:49;10.73;;;6.90;;
71150;SDS011;59071;42.138;24.768;2022-07-23T03:50:14;14.95;;;6.93;;
71150;SDS011;59071;42.138;24.768;2022-07-23T03:52:39;11.20;;;6.85;;
71150;SDS011;59071;42.138;24.768;2022-07-23T03:55:05;13.55;;;6.57;;
71150;SDS011;59071;42.138;24.768;2022-07-23T03:57:31;11.35;;;7.00;;
71150;SDS011;59071;42.138;24.768;2022-07-23T03:59:57;12.07;;;6.38;;
71150;SDS011;59071;42.138;24.768;2022-07-23T04:02:22;8.85;;;6.15;;
71150;SDS011;59071;42.138;24.768;2022-07-23T04:04:48;8.63;;;5.60;;
71150;SDS011;59071;42.138;24.768;2022-07-23T04:07:13;7.65;;;5.90;;
71150;SDS011;59071;42.138;24.768;2022-07-23T04:09:39;8.63;;;5.93;;
71150;SDS011;59071;42.138;24.768;2022-07-23T04:12:07;11.87;;;6.20;;
71150;SDS011;59071;42.138;24.768;2022-07-23T04:14:33;9.52;;;6.25;;
71150;SDS011;59071;42.138;24.768;2022-07-23T04:16:58;7.60;;;5.90;;
71150;SDS011;59071;42.138;24.768;2022-07-23T04:19:24;14.00;;;6.72;;
71150;SDS011;59071;42.138;24.768;2022-07-23T04:21:50;9.13;;;6.28;;
71150;SDS011;59071;42.138;24.768;2022-07-23T04:24:15;10.77;;;6.80;;
71150;SDS011;59071;42.138;24.768;2022-07-23T04:26:41;9.80;;;6.50;;
71150;SDS011;59071;42.138;24.768;2022-07-23T04:29:06;10.32;;;6.85;;
71150;SDS011;59071;42.138;24.768;2022-07-23T04:31:32;10.43;;;7.63;;
71150;SDS011;59071;42.138;24.768;2022-07-23T04:33:58;13.88;;;8.80;;
71150;SDS011;59071;42.138;24.768;2022-07-23T04:36:24;13.65;;;8.90;;
71150;SDS011;59071;42.138;24.768;2022-07-23T04:38:49;14.88;;;9.05;;
71150;SDS011;59071;42.138;24.768;2022-07-23T04:41:14;14.63;;;9.25;;
71150;SDS011;59071;42.138;24.768;2022-07-23T04:43:40;12.60;;;9.15;;
71150;SDS011;59071;42.138;24.768;2022-07-23T04:46:05;14.73;;;9.15;;
71150;SDS011;59071;42.138;24.768;2022-07-23T04:48:31;18.70;;;9.35;;
71150;SDS011;59071;42.138;24.768;2022-07-23T04:50:56;13.00;;;9.35;;
71150;SDS011;59071;42.138;24.768;2022-07-23T04:53:22;15.30;;;9.18;;
71150;SDS011;59071;42.138;24.768;2022-07-23T04:55:47;12.85;;;9.00;;
71150;SDS011;59071;42.138;24.768;2022-07-23T04:58:13;17.27;;;10.45;;
71150;SDS011;59071;42.138;24.768;2022-07-23T05:00:38;12.93;;;9.60;;
71150;SDS011;59071;42.138;24.768;2022-07-23T05:03:03;17.85;;;9.90;;
71150;SDS011;59071;42.138;24.768;2022-07-23T05:05:29;15.43;;;10.45;;
71150;SDS011;59071;42.138;24.768;2022-07-23T05:07:54;15.98;;;10.77;;
71150;SDS011;59071;42.138;24.768;2022-07-23T05:10:20;19.33;;;11.00;;
71150;SDS011;59071;42.138;24.768;2022-07-23T05:12:45;18.88;;;11.20;;
71150;SDS011;59071;42.138;24.768;2022-07-23T05:15:11;18.42;;;12.25;;
71150;SDS011;59071;42.138;24.768;2022-07-23T05:17:36;19.20;;;12.20;;
71150;SDS011;59071;42.138;24.768;2022-07-23T05:20:02;18.88;;;11.52;;
71150;SDS011;59071;42.138;24.768;2022-07-23T05:22:28;17.17;;;11.52;;
71150;SDS011;59071;42.138;24.768;2022-07-23T05:24:53;16.42;;;11.90;;
71150;SDS011;59071;42.138;24.768;2022-07-23T05:27:19;17.50;;;11.05;;
71150;SDS011;59071;42.138;24.768;2022-07-23T05:29:44;14.55;;;11.30;;
71150;SDS011;59071;42.138;24.768;2022-07-23T05:32:10;13.57;;;10.88;;
71150;SDS011;59071;42.138;24.768;2022-07-23T05:34:35;18.73;;;10.20;;
71150;SDS011;59071;42.138;24.768;2022-07-23T05:37:01;17.10;;;9.90;;
71150;SDS011;59071;42.138;24.768;2022-07-23T05:39:26;16.35;;;9.38;;
71150;SDS011;59071;42.138;24.768;2022-07-23T05:41:51;13.15;;;9.20;;
71150;SDS011;59071;42.138;24.768;2022-07-23T05:44:17;15.75;;;8.50;;
71150;SDS011;59071;42.138;24.768;2022-07-23T05:46:42;11.63;;;7.20;;
71150;SDS011;59071;42.138;24.768;2022-07-23T05:49:08;14.30;;;7.60;;
71150;SDS011;59071;42.138;24.768;2022-07-23T05:51:33;12.88;;;7.90;;
71150;SDS011;59071;42.138;24.768;2022-07-23T05:53:58;15.35;;;9.00;;
71150;SDS011;59071;42.138;24.768;2022-07-23T05:56:24;15.10;;;8.75;;
71150;SDS011;59071;42.138;24.768;2022-07-23T05:58:49;12.45;;;8.32;;
71150;SDS011;59071;42.138;24.768;2022-07-23T06:01:15;10.98;;;7.50;;
71150;SDS011;59071;42.138;24.768;2022-07-23T06:03:40;13.32;;;7.63;;
71150;SDS011;59071;42.138;24.768;2022-07-23T06:06:06;13.75;;;8.07;;
71150;SDS011;59071;42.138;24.768;2022-07-23T06:08:31;14.32;;;8.40;;
71150;SDS011;59071;42.138;24.768;2022-07-23T06:10:57;15.52;;;7.68;;
71150;SDS011;59071;42.138;24.768;2022-07-23T06:13:22;10.48;;;7.80;;
71150;SDS011;59071;42.138;24.768;2022-07-23T06:15:48;15.35;;;8.15;;
71150;SDS011;59071;42.138;24.768;2022-07-23T06:18:16;11.93;;;7.93;;
71150;SDS011;59071;42.138;24.768;2022-07-23T06:20:42;18.23;;;9.30;;
71150;SDS011;59071;42.138;24.768;2022-07-23T06:23:07;10.50;;;8.48;;
71150;SDS011;59071;42.138;24.768;2022-07-23T06:25:32;12.40;;;7.35;;
71150;SDS011;59071;42.138;24.768;2022-07-23T06:27:58;13.02;;;10.00;;
71150;SDS011;59071;42.138;24.768;2022-07-23T06:30:25;12.57;;;7.82;;
71150;SDS011;59071;42.138;24.768;2022-07-23T06:32:50;14.38;;;8.65;;
71150;SDS011;59071;42.138;24.768;2022-07-23T06:35:16;15.55;;;7.93;;
71150;SDS011;59071;42.138;24.768;2022-07-23T06:37:41;12.00;;;7.75;;
71150;SDS011;59071;42.138;24.768;2022-07-23T06:40:07;12.50;;;7.13;;
71150;SDS011;59071;42.138;24.768;2022-07-23T06:42:33;12.40;;;7.70;;
71150;SDS011;59071;42.138;24.768;2022-07-23T06:44:58;13.05;;;8.13;;
71150;SDS011;59071;42.138;24.768;2022-07-23T06:47:24;14.10;;;7.00;;
71150;SDS011;59071;42.138;24.768;2022-07-23T06:49:49;10.80;;;6.30;;
71150;SDS011;59071;42.138;24.768;2022-07-23T06:52:14;11.80;;;5.85;;
71150;SDS011;59071;42.138;24.768;2022-07-23T06:54:40;10.55;;;5.50;;
71150;SDS011;59071;42.138;24.768;2022-07-23T06:57:05;10.35;;;5.78;;
71150;SDS011;59071;42.138;24.768;2022-07-23T06:59:31;7.72;;;5.47;;
71150;SDS011;59071;42.138;24.768;2022-07-23T07:01:58;11.25;;;5.80;;
71150;SDS011;59071;42.138;24.768;2022-07-23T07:04:23;8.98;;;5.25;;
71150;SDS011;59071;42.138;24.768;2022-07-23T07:06:48;9.38;;;5.40;;
71150;SDS011;59071;42.138;24.768;2022-07-23T07:09:14;8.80;;;5.03;;
71150;SDS011;59071;42.138;24.768;2022-07-23T07:11:39;9.98;;;4.95;;
71150;SDS011;59071;42.138;24.768;2022-07-23T07:14:05;8.60;;;4.85;;
71150;SDS011;59071;42.138;24.768;2022-07-23T07:16:31;10.75;;;5.82;;
71150;SDS011;59071;42.138;24.768;2022-07-23T07:18:56;9.10;;;4.82;;
71150;SDS011;59071;42.138;24.768;2022-07-23T07:21:21;7.78;;;4.80;;
71150;SDS011;59071;42.138;24.768;2022-07-23T07:23:47;8.82;;;4.45;;
71150;SDS011;59071;42.138;24.768;2022-07-23T07:26:12;11.68;;;4.55;;
71150;SDS011;59071;42.138;24.768;2022-07-23T07:28:38;10.85;;;4.60;;
71150;SDS011;59071;42.138;24.768;2022-07-23T07:31:03;7.43;;;4.75;;
71150;SDS011;59071;42.138;24.768;2022-07-23T07:33:29;9.23;;;4.80;;
71150;SDS011;59071;42.138;24.768;2022-07-23T07:35:54;10.60;;;4.45;;
71150;SDS011;59071;42.138;24.768;2022-07-23T07:38:20;11.38;;;5.28;;
71150;SDS011;59071;42.138;24.768;2022-07-23T07:40:45;11.23;;;4.80;;
71150;SDS011;59071;42.138;24.768;2022-07-23T07:43:11;7.68;;;4.30;;
71150;SDS011;59071;42.138;24.768;2022-07-23T07:45:36;10.27;;;4.70;;
71150;SDS011;59071;42.138;24.768;2022-07-23T07:48:02;9.93;;;4.32;;
71150;SDS011;59071;42.138;24.768;2022-07-23T07:50:27;8.93;;;4.72;;
71150;SDS011;59071;42.138;24.768;2022-07-23T07:52:53;7.25;;;4.38;;
71150;SDS011;59071;42.138;24.768;2022-07-23T07:55:18;9.18;;;4.20;;
71150;SDS011;59071;42.138;24.768;2022-07-23T07:57:44;11.52;;;4.20;;
71150;SDS011;59071;42.138;24.768;2022-07-23T08:00:09;9.18;;;5.45;;
71150;SDS011;59071;42.138;24.768;2022-07-23T08:05:27;7.32;;;4.50;;
71150;SDS011;59071;42.138;24.768;2022-07-23T08:07:54;7.53;;;4.20;;
71150;SDS011;59071;42.138;24.768;2022-07-23T08:10:21;8.57;;;4.22;;
71150;SDS011;59071;42.138;24.768;2022-07-23T08:12:47;9.15;;;4.75;;
71150;SDS011;59071;42.138;24.768;2022-07-23T08:15:16;8.82;;;4.00;;
71150;SDS011;59071;42.138;24.768;2022-07-23T08:17:43;6.72;;;4.60;;
71150;SDS011;59071;42.138;24.768;2022-07-23T08:20:10;8.03;;;4.30;;
71150;SDS011;59071;42.138;24.768;2022-07-23T08:22:44;9.13;;;4.03;;
71150;SDS011;59071;42.138;24.768;2022-07-23T08:25:28;7.32;;;4.07;;
71150;SDS011;59071;42.138;24.768;2022-07-23T08:28:01;9.90;;;4.10;;
71150;SDS011;59071;42.138;24.768;2022-07-23T08:30:29;8.73;;;4.25;;
71150;SDS011;59071;42.138;24.768;2022-07-23T08:35:33;7.03;;;4.05;;
71150;SDS011;59071;42.138;24.768;2022-07-23T08:38:06;7.68;;;4.22;;
71150;SDS011;59071;42.138;24.768;2022-07-23T08:40:34;10.65;;;4.47;;
71150;SDS011;59071;42.138;24.768;2022-07-23T08:43:08;18.02;;;13.05;;
71150;SDS011;59071;42.138;24.768;2022-07-23T08:45:35;7.60;;;4.90;;
71150;SDS011;59071;42.138;24.768;2022-07-23T08:48:05;27.48;;;24.75;;
71150;SDS011;59071;42.138;24.768;2022-07-23T08:50:32;9.88;;;6.90;;
71150;SDS011;59071;42.138;24.768;2022-07-23T08:53:01;6.95;;;4.80;;
71150;SDS011;59071;42.138;24.768;2022-07-23T08:55:30;8.77;;;3.90;;
71150;SDS011;59071;42.138;24.768;2022-07-23T08:57:55;8.77;;;4.50;;
71150;SDS011;59071;42.138;24.768;2022-07-23T09:00:21;7.20;;;4.30;;
71150;SDS011;59071;42.138;24.768;2022-07-23T09:02:48;10.57;;;4.47;;
71150;SDS011;59071;42.138;24.768;2022-07-23T09:05:14;7.63;;;3.90;;
71150;SDS011;59071;42.138;24.768;2022-07-23T09:10:28;9.47;;;4.53;;
71150;SDS011;59071;42.138;24.768;2022-07-23T09:12:54;8.98;;;4.40;;
71150;SDS011;59071;42.138;24.768;2022-07-23T09:15:20;8.93;;;5.25;;
71150;SDS011;59071;42.138;24.768;2022-07-23T09:17:45;6.88;;;4.53;;
71150;SDS011;59071;42.138;24.768;2022-07-23T09:20:14;6.03;;;4.15;;
71150;SDS011;59071;42.138;24.768;2022-07-23T09:22:47;7.68;;;4.10;;
71150;SDS011;59071;42.138;24.768;2022-07-23T09:25:17;8.48;;;4.10;;
71150;SDS011;59071;42.138;24.768;2022-07-23T09:27:45;8.95;;;4.30;;
71150;SDS011;59071;42.138;24.768;2022-07-23T09:30:13;8.15;;;4.50;;
71150;SDS011;59071;42.138;24.768;2022-07-23T09:32:39;7.28;;;3.95;;
71150;SDS011;59071;42.138;24.768;2022-07-23T09:35:05;8.15;;;3.92;;
71150;SDS011;59071;42.138;24.768;2022-07-23T09:37:31;8.95;;;4.03;;
71150;SDS011;59071;42.138;24.768;2022-07-23T09:40:03;6.10;;;3.90;;
71150;SDS011;59071;42.138;24.768;2022-07-23T09:42:33;6.10;;;4.20;;
71150;SDS011;59071;42.138;24.768;2022-07-23T09:44:59;10.15;;;4.07;;
71150;SDS011;59071;42.138;24.768;2022-07-23T09:47:25;18.38;;;13.68;;
71150;SDS011;59071;42.138;24.768;2022-07-23T09:50:07;13.45;;;7.72;;
71150;SDS011;59071;42.138;24.768;2022-07-23T09:52:47;9.07;;;4.10;;
71150;SDS011;59071;42.138;24.768;2022-07-23T09:55:14;8.80;;;7.57;;
71150;SDS011;59071;42.138;24.768;2022-07-23T09:57:42;10.77;;;9.23;;
71150;SDS011;59071;42.138;24.768;2022-07-23T10:00:12;9.18;;;4.43;;
71150;SDS011;59071;42.138;24.768;2022-07-23T10:02:38;9.98;;;4.25;;
71150;SDS011;59071;42.138;24.768;2022-07-23T10:05:05;11.95;;;7.78;;
71150;SDS011;59071;42.138;24.768;2022-07-23T10:07:32;8.25;;;4.10;;
71150;SDS011;59071;42.138;24.768;2022-07-23T10:10:02;6.70;;;3.70;;
71150;SDS011;59071;42.138;24.768;2022-07-23T10:12:29;6.05;;;3.40;;
71150;SDS011;59071;42.138;24.768;2022-07-23T10:15:04;7.55;;;3.50;;
71150;SDS011;59071;42.138;24.768;2022-07-23T10:19:56;9.02;;;3.88;;
71150;SDS011;59071;42.138;24.768;2022-07-23T10:22:23;6.43;;;3.60;;
71150;SDS011;59071;42.138;24.768;2022-07-23T10:27:49;6.70;;;3.47;;
71150;SDS011;59071;42.138;24.768;2022-07-23T10:33:32;5.93;;;3.65;;
71150;SDS011;59071;42.138;24.768;2022-07-23T10:38:52;7.28;;;3.60;;
71150;SDS011;59071;42.138;24.768;2022-07-23T10:41:37;7.40;;;3.80;;
71150;SDS011;59071;42.138;24.768;2022-07-23T10:44:11;9.00;;;3.83;;
71150;SDS011;59071;42.138;24.768;2022-07-23T10:49:43;7.45;;;3.55;;
71150;SDS011;59071;42.138;24.768;2022-07-23T10:52:19;7.72;;;4.00;;
71150;SDS011;59071;42.138;24.768;2022-07-23T10:54:56;8.55;;;3.60;;
71150;SDS011;59071;42.138;24.768;2022-07-23T10:57:48;10.88;;;3.92;;
71150;SDS011;59071;42.138;24.768;2022-07-23T11:00:22;6.35;;;4.20;;
71150;SDS011;59071;42.138;24.768;2022-07-23T11:02:52;7.50;;;4.00;;
71150;SDS011;59071;42.138;24.768;2022-07-23T11:05:20;8.73;;;3.90;;
71150;SDS011;59071;42.138;24.768;2022-07-23T11:10:36;7.00;;;4.03;;
71150;SDS011;59071;42.138;24.768;2022-07-23T11:23:57;9.40;;;4.07;;
71150;SDS011;59071;42.138;24.768;2022-07-23T11:31:53;8.82;;;3.75;;
71150;SDS011;59071;42.138;24.768;2022-07-23T11:36:56;9.40;;;3.90;;
71150;SDS011;59071;42.138;24.768;2022-07-23T11:39:22;14.68;;;4.10;;
71150;SDS011;59071;42.138;24.768;2022-07-23T11:41:50;14.23;;;3.80;;
71150;SDS011;59071;42.138;24.768;2022-07-23T11:46:56;10.43;;;3.90;;
71150;SDS011;59071;42.138;24.768;2022-07-23T11:49:23;10.00;;;3.80;;
71150;SDS011;59071;42.138;24.768;2022-07-23T11:54:37;7.80;;;3.55;;
71150;SDS011;59071;42.138;24.768;2022-07-23T11:57:12;8.55;;;4.13;;
71150;SDS011;59071;42.138;24.768;2022-07-23T11:59:38;8.20;;;3.90;;
71150;SDS011;59071;42.138;24.768;2022-07-23T12:02:04;10.18;;;3.80;;
71150;SDS011;59071;42.138;24.768;2022-07-23T12:04:50;6.45;;;3.90;;
71150;SDS011;59071;42.138;24.768;2022-07-23T12:09:48;10.50;;;3.90;;
71150;SDS011;59071;42.138;24.768;2022-07-23T12:12:14;8.82;;;4.25;;
71150;SDS011;59071;42.138;24.768;2022-07-23T12:14:52;8.13;;;3.67;;
71150;SDS011;59071;42.138;24.768;2022-07-23T12:17:20;8.00;;;4.03;;
71150;SDS011;59071;42.138;24.768;2022-07-23T12:19:51;12.18;;;4.00;;
71150;SDS011;59071;42.138;24.768;2022-07-23T12:22:17;12.68;;;8.13;;
71150;SDS011;59071;42.138;24.768;2022-07-23T12:24:53;18.17;;;10.82;;
71150;SDS011;59071;42.138;24.768;2022-07-23T12:27:20;10.98;;;3.88;;
71150;SDS011;59071;42.138;24.768;2022-07-23T12:29:46;12.27;;;4.38;;
71150;SDS011;59071;42.138;24.768;2022-07-23T12:34:48;11.60;;;4.10;;
71150;SDS011;59071;42.138;24.768;2022-07-23T12:37:35;12.52;;;4.20;;
71150;SDS011;59071;42.138;24.768;2022-07-23T12:40:18;11.52;;;7.68;;
71150;SDS011;59071;42.138;24.768;2022-07-23T12:42:47;10.60;;;4.28;;
71150;SDS011;59071;42.138;24.768;2022-07-23T12:45:14;10.35;;;3.97;;
71150;SDS011;59071;42.138;24.768;2022-07-23T12:47:52;13.27;;;3.97;;
71150;SDS011;59071;42.138;24.768;2022-07-23T12:50:32;12.73;;;4.13;;
71150;SDS011;59071;42.138;24.768;2022-07-23T12:53:15;16.48;;;3.97;;
71150;SDS011;59071;42.138;24.768;2022-07-23T12:55:46;11.23;;;3.88;;
71150;SDS011;59071;42.138;24.768;2022-07-23T12:58:13;8.70;;;3.90;;
71150;SDS011;59071;42.138;24.768;2022-07-23T13:03:21;8.48;;;3.83;;
71150;SDS011;59071;42.138;24.768;2022-07-23T13:05:51;11.38;;;4.30;;
71150;SDS011;59071;42.138;24.768;2022-07-23T13:08:17;9.52;;;4.10;;
71150;SDS011;59071;42.138;24.768;2022-07-23T13:10:43;10.52;;;4.55;;
71150;SDS011;59071;42.138;24.768;2022-07-23T13:13:11;13.00;;;4.03;;
71150;SDS011;59071;42.138;24.768;2022-07-23T13:15:37;9.65;;;4.00;;
71150;SDS011;59071;42.138;24.768;2022-07-23T13:18:02;10.55;;;4.18;;
71150;SDS011;59071;42.138;24.768;2022-07-23T13:20:28;13.00;;;4.35;;
71150;SDS011;59071;42.138;24.768;2022-07-23T13:22:53;10.95;;;4.20;;
71150;SDS011;59071;42.138;24.768;2022-07-23T13:25:19;8.43;;;3.88;;
71150;SDS011;59071;42.138;24.768;2022-07-23T13:27:44;15.75;;;4.30;;
71150;SDS011;59071;42.138;24.768;2022-07-23T13:30:10;12.20;;;3.80;;
71150;SDS011;59071;42.138;24.768;2022-07-23T13:32:36;8.02;;;3.88;;
71150;SDS011;59071;42.138;24.768;2022-07-23T13:35:02;7.88;;;3.63;;
71150;SDS011;59071;42.138;24.768;2022-07-23T13:37:28;13.93;;;4.60;;
71150;SDS011;59071;42.138;24.768;2022-07-23T13:39:54;9.23;;;3.97;;
71150;SDS011;59071;42.138;24.768;2022-07-23T13:42:19;10.45;;;3.95;;
71150;SDS011;59071;42.138;24.768;2022-07-23T13:44:45;10.23;;;3.83;;
71150;SDS011;59071;42.138;24.768;2022-07-23T13:47:10;11.23;;;3.80;;
71150;SDS011;59071;42.138;24.768;2022-07-23T13:49:36;10.25;;;4.30;;
71150;SDS011;59071;42.138;24.768;2022-07-23T13:52:02;10.45;;;4.35;;
71150;SDS011;59071;42.138;24.768;2022-07-23T13:54:28;10.45;;;3.92;;
71150;SDS011;59071;42.138;24.768;2022-07-23T13:56:53;8.98;;;4.10;;
71150;SDS011;59071;42.138;24.768;2022-07-23T13:59:19;9.90;;;4.38;;
71150;SDS011;59071;42.138;24.768;2022-07-23T14:01:44;11.40;;;4.20;;
71150;SDS011;59071;42.138;24.768;2022-07-23T14:04:09;12.68;;;4.43;;
71150;SDS011;59071;42.138;24.768;2022-07-23T14:06:35;11.90;;;3.90;;
71150;SDS011;59071;42.138;24.768;2022-07-23T14:09:00;10.68;;;3.72;;
71150;SDS011;59071;42.138;24.768;2022-07-23T14:11:26;12.00;;;4.30;;
71150;SDS011;59071;42.138;24.768;2022-07-23T14:13:51;11.98;;;4.47;;
71150;SDS011;59071;42.138;24.768;2022-07-23T14:16:16;9.63;;;4.32;;
71150;SDS011;59071;42.138;24.768;2022-07-23T14:18:42;9.93;;;4.05;;
71150;SDS011;59071;42.138;24.768;2022-07-23T14:21:07;11.30;;;4.32;;
71150;SDS011;59071;42.138;24.768;2022-07-23T14:23:33;8.95;;;4.40;;
71150;SDS011;59071;42.138;24.768;2022-07-23T14:25:58;12.90;;;4.40;;
71150;SDS011;59071;42.138;24.768;2022-07-23T14:28:24;11.93;;;4.28;;
71150;SDS011;59071;42.138;24.768;2022-07-23T14:30:49;12.20;;;4.55;;
71150;SDS011;59071;42.138;24.768;2022-07-23T14:33:15;12.88;;;4.15;;
71150;SDS011;59071;42.138;24.768;2022-07-23T14:35:41;12.50;;;4.07;;
71150;SDS011;59071;42.138;24.768;2022-07-23T14:38:07;11.98;;;4.20;;
71150;SDS011;59071;42.138;24.768;2022-07-23T14:40:32;17.02;;;4.68;;
71150;SDS011;59071;42.138;24.768;2022-07-23T14:42:58;10.88;;;3.83;;
71150;SDS011;59071;42.138;24.768;2022-07-23T14:45:23;7.80;;;3.80;;
71150;SDS011;59071;42.138;24.768;2022-07-23T14:47:49;11.73;;;3.97;;
71150;SDS011;59071;42.138;24.768;2022-07-23T14:50:14;11.85;;;4.50;;
71150;SDS011;59071;42.138;24.768;2022-07-23T14:52:40;8.15;;;3.92;;
71150;SDS011;59071;42.138;24.768;2022-07-23T14:55:05;12.20;;;4.05;;
71150;SDS011;59071;42.138;24.768;2022-07-23T14:57:31;11.77;;;4.03;;
71150;SDS011;59071;42.138;24.768;2022-07-23T14:59:57;13.35;;;3.95;;
71150;SDS011;59071;42.138;24.768;2022-07-23T15:02:22;12.02;;;4.05;;
71150;SDS011;59071;42.138;24.768;2022-07-23T15:04:47;9.57;;;3.90;;
71150;SDS011;59071;42.138;24.768;2022-07-23T15:07:13;8.77;;;3.92;;
71150;SDS011;59071;42.138;24.768;2022-07-23T15:09:38;10.95;;;4.13;;
71150;SDS011;59071;42.138;24.768;2022-07-23T15:12:04;9.57;;;3.95;;
71150;SDS011;59071;42.138;24.768;2022-07-23T15:14:30;8.15;;;4.00;;
71150;SDS011;59071;42.138;24.768;2022-07-23T15:16:55;12.48;;;4.05;;
71150;SDS011;59071;42.138;24.768;2022-07-23T15:19:21;10.57;;;4.95;;
71150;SDS011;59071;42.138;24.768;2022-07-23T15:21:46;8.88;;;4.90;;